createdAt,value
2019-05-18T00:01:26.102Z,9.60
2019-05-18T00:03:54.576Z,9.13
2019-05-18T00:06:23.058Z,8.83
2019-05-18T00:08:51.595Z,9.07
2019-05-18T00:11:20.103Z,8.87
2019-05-18T00:13:48.567Z,9.13
2019-05-18T00:16:16.999Z,9.90
2019-05-18T00:18:45.460Z,8.07
2019-05-18T00:21:13.938Z,9.20
2019-05-18T00:23:42.385Z,8.97
2019-05-18T00:26:10.825Z,9.23
2019-05-18T00:28:39.361Z,8.77
2019-05-18T00:31:07.918Z,9.13
2019-05-18T00:33:36.371Z,9.33
2019-05-18T00:36:05.380Z,9.27
2019-05-18T00:38:33.887Z,9.63
2019-05-18T00:41:02.558Z,9.77
2019-05-18T00:43:31.121Z,10.10
2019-05-18T00:45:59.543Z,9.43
2019-05-18T00:48:28.007Z,19.57
2019-05-18T00:50:56.532Z,22.33
2019-05-18T00:53:25.061Z,14.00
2019-05-18T00:55:53.490Z,11.33
2019-05-18T00:58:21.963Z,11.07
2019-05-18T01:00:50.460Z,9.63
2019-05-18T01:03:18.939Z,15.43
2019-05-18T01:05:47.529Z,14.70
2019-05-18T01:08:16.022Z,13.30
2019-05-18T01:10:44.552Z,12.23
2019-05-18T01:13:13.431Z,18.03
2019-05-18T01:15:41.966Z,20.30
2019-05-18T01:18:10.415Z,16.70
2019-05-18T01:20:38.925Z,10.83
2019-05-18T01:23:07.595Z,10.60
2019-05-18T01:25:36.069Z,10.27
2019-05-18T01:28:04.665Z,9.57
2019-05-18T01:30:33.199Z,8.87
2019-05-18T01:33:01.744Z,9.73
2019-05-18T01:35:30.293Z,9.50
2019-05-18T01:37:58.718Z,8.77
2019-05-18T01:40:27.188Z,8.53
2019-05-18T01:42:55.666Z,9.43
2019-05-18T01:45:24.188Z,8.70
2019-05-18T01:47:52.642Z,9.23
2019-05-18T01:50:21.172Z,9.20
2019-05-18T01:52:49.920Z,8.10
2019-05-18T01:55:18.364Z,9.40
2019-05-18T01:57:46.919Z,8.80
2019-05-18T02:00:15.803Z,8.70
2019-05-18T02:02:44.319Z,9.30
2019-05-18T02:05:13.113Z,8.80
2019-05-18T02:07:41.579Z,9.23
2019-05-18T02:10:10.745Z,9.07
2019-05-18T02:12:39.243Z,9.77
2019-05-18T02:15:09.417Z,9.33
2019-05-18T02:17:38.057Z,9.33
2019-05-18T02:20:06.727Z,8.00
2019-05-18T02:22:35.243Z,8.53
2019-05-18T02:25:06.032Z,8.33
2019-05-18T02:27:34.506Z,8.60
2019-05-18T02:30:06.475Z,8.10
2019-05-18T02:32:35.023Z,8.70
2019-05-18T02:35:05.128Z,8.70
2019-05-18T02:37:33.593Z,8.73
2019-05-18T02:40:02.009Z,8.47
2019-05-18T02:42:31.001Z,8.60
2019-05-18T02:44:59.742Z,8.37
2019-05-18T02:47:28.243Z,8.60
2019-05-18T02:49:56.661Z,9.07
2019-05-18T02:52:25.109Z,8.87
2019-05-18T02:54:53.531Z,8.07
2019-05-18T02:57:22.079Z,8.90
2019-05-18T02:59:50.472Z,8.93
2019-05-18T03:02:19.000Z,9.60
2019-05-18T03:04:47.523Z,8.93
2019-05-18T03:07:16.084Z,8.93
2019-05-18T03:09:44.652Z,9.40
2019-05-18T03:12:14.311Z,9.23
2019-05-18T03:14:42.757Z,8.43
2019-05-18T03:17:11.200Z,9.07
2019-05-18T03:19:39.736Z,8.70
2019-05-18T03:22:08.277Z,8.50
2019-05-18T03:24:36.716Z,8.30
2019-05-18T03:27:05.208Z,7.97
2019-05-18T03:29:33.673Z,8.03
2019-05-18T03:32:02.100Z,8.33
2019-05-18T03:34:30.572Z,7.77
2019-05-18T03:36:59.070Z,9.07
2019-05-18T03:39:27.653Z,7.67
2019-05-18T03:41:56.077Z,8.10
2019-05-18T03:44:24.538Z,8.23
2019-05-18T03:46:53.073Z,7.83
2019-05-18T03:49:26.725Z,7.97
2019-05-18T03:51:51.903Z,7.93
2019-05-18T03:54:20.350Z,7.80
2019-05-18T03:56:48.857Z,8.47
2019-05-18T03:59:17.304Z,8.80
2019-05-18T04:01:45.756Z,8.10
2019-05-18T04:04:18.331Z,8.17
2019-05-18T04:06:47.352Z,7.77
2019-05-18T04:09:15.806Z,8.10
2019-05-18T04:11:46.198Z,8.20
2019-05-18T04:14:14.436Z,8.23
2019-05-18T04:16:42.866Z,8.93
2019-05-18T04:19:11.306Z,8.17
2019-05-18T04:21:39.832Z,8.20
2019-05-18T04:24:08.338Z,8.23
2019-05-18T04:26:37.424Z,8.53
2019-05-18T04:29:06.032Z,7.47
2019-05-18T04:31:34.489Z,7.90
2019-05-18T04:34:03.035Z,7.67
2019-05-18T04:36:31.938Z,8.60
2019-05-18T04:39:00.434Z,7.73
2019-05-18T04:41:28.970Z,7.77
2019-05-18T04:43:57.467Z,7.37
2019-05-18T04:46:25.949Z,7.87
2019-05-18T04:48:54.443Z,8.37
2019-05-18T04:51:22.920Z,7.80
2019-05-18T04:53:51.359Z,8.13
2019-05-18T04:56:19.823Z,7.40
2019-05-18T04:58:48.246Z,8.07
2019-05-18T05:01:16.767Z,7.80
2019-05-18T05:03:45.205Z,7.90
2019-05-18T05:06:13.776Z,9.07
2019-05-18T05:08:42.188Z,7.87
2019-05-18T05:11:10.807Z,7.23
2019-05-18T05:13:39.299Z,7.53
2019-05-18T05:16:08.712Z,7.60
2019-05-18T05:18:37.237Z,8.07
2019-05-18T05:21:07.195Z,7.23
2019-05-18T05:23:35.823Z,7.57
2019-05-18T05:26:04.343Z,7.47
2019-05-18T05:28:32.823Z,7.87
2019-05-18T05:31:01.251Z,7.97
2019-05-18T05:33:29.763Z,7.60
2019-05-18T05:35:58.195Z,7.23
2019-05-18T05:38:26.646Z,7.63
2019-05-18T05:40:55.063Z,7.60
2019-05-18T05:43:23.602Z,7.73
2019-05-18T05:45:52.016Z,7.93
2019-05-18T05:48:20.475Z,7.20
2019-05-18T05:50:48.949Z,7.30
2019-05-18T05:53:17.415Z,7.70
2019-05-18T05:55:45.837Z,8.07
2019-05-18T05:58:14.294Z,7.03
2019-05-18T06:00:42.753Z,7.23
2019-05-18T06:03:11.209Z,7.90
2019-05-18T06:05:39.684Z,7.53
2019-05-18T06:08:08.112Z,7.10
2019-05-18T06:10:36.702Z,7.30
2019-05-18T06:13:05.191Z,7.67
2019-05-18T06:15:33.638Z,8.03
2019-05-18T06:18:02.067Z,7.47
2019-05-18T06:20:30.595Z,7.70
2019-05-18T06:22:59.025Z,8.13
2019-05-18T06:25:27.472Z,7.87
2019-05-18T06:27:55.910Z,7.53
2019-05-18T06:30:24.442Z,7.87
2019-05-18T06:32:52.886Z,7.70
2019-05-18T06:35:21.361Z,7.80
2019-05-18T06:37:49.451Z,7.60
2019-05-18T06:40:18.001Z,7.67
2019-05-18T06:42:47.379Z,7.87
2019-05-18T06:45:16.206Z,7.90
2019-05-18T06:47:47.857Z,7.80
2019-05-18T06:50:17.844Z,8.10
2019-05-18T06:52:46.361Z,8.13
2019-05-18T06:55:15.149Z,7.90
2019-05-18T06:57:50.784Z,7.73
2019-05-18T07:00:19.371Z,8.03
2019-05-18T07:02:47.804Z,8.03
2019-05-18T07:05:16.365Z,7.40
2019-05-18T07:07:44.815Z,7.13
2019-05-18T07:10:13.659Z,7.10
2019-05-18T07:12:42.148Z,7.40
2019-05-18T07:15:11.237Z,7.50
2019-05-18T07:17:39.667Z,7.40
2019-05-18T07:20:08.862Z,6.40
2019-05-18T07:22:37.384Z,7.70
2019-05-18T07:25:09.127Z,7.20
2019-05-18T07:27:37.712Z,7.67
2019-05-18T07:30:08.051Z,7.73
2019-05-18T07:32:38.260Z,6.97
2019-05-18T07:35:07.355Z,7.00
2019-05-18T07:37:36.096Z,7.00
2019-05-18T07:40:06.962Z,6.90
2019-05-18T07:42:35.493Z,7.03
2019-05-18T07:45:06.057Z,6.87
2019-05-18T07:47:34.589Z,7.27
2019-05-18T07:50:03.160Z,7.07
2019-05-18T07:52:31.619Z,6.33
2019-05-18T07:55:00.101Z,6.77
2019-05-18T07:57:28.575Z,6.63
2019-05-18T07:59:57.009Z,6.80
2019-05-18T08:02:25.490Z,6.93
2019-05-18T08:04:53.986Z,6.40
2019-05-18T08:07:22.503Z,6.63
2019-05-18T08:09:50.960Z,7.30
2019-05-18T08:12:19.424Z,6.70
2019-05-18T08:14:47.879Z,7.23
2019-05-18T08:17:16.345Z,7.10
2019-05-18T08:19:44.786Z,7.50
2019-05-18T08:22:13.356Z,6.30
2019-05-18T08:24:41.867Z,6.70
2019-05-18T08:27:10.515Z,6.13
2019-05-18T08:29:39.033Z,5.97
2019-05-18T08:32:07.484Z,5.80
2019-05-18T08:34:35.967Z,5.60
2019-05-18T08:37:04.573Z,6.17
2019-05-18T08:39:33.015Z,6.40
2019-05-18T08:42:01.445Z,5.47
2019-05-18T08:44:29.899Z,6.10
2019-05-18T08:46:58.373Z,5.77
2019-05-18T08:49:26.866Z,5.43
2019-05-18T08:52:07.534Z,5.40
2019-05-18T08:54:25.500Z,4.97
2019-05-18T08:56:54.449Z,5.00
2019-05-18T08:59:22.962Z,5.60
2019-05-18T09:01:51.394Z,5.30
2019-05-18T09:04:19.861Z,5.87
2019-05-18T09:06:48.294Z,5.27
2019-05-18T09:09:16.758Z,5.30
2019-05-18T09:11:45.194Z,5.33
2019-05-18T09:14:13.659Z,6.70
2019-05-18T09:16:42.159Z,6.07
2019-05-18T09:19:10.653Z,5.20
2019-05-18T09:21:39.134Z,5.20
2019-05-18T09:24:07.566Z,5.40
2019-05-18T09:26:36.031Z,5.53
2019-05-18T09:29:04.625Z,5.07
2019-05-18T09:31:33.119Z,5.70
2019-05-18T09:34:01.540Z,5.70
2019-05-18T09:36:30.081Z,6.00
2019-05-18T09:38:58.508Z,5.37
2019-05-18T09:41:26.947Z,5.37
2019-05-18T09:43:55.384Z,6.30
2019-05-18T09:46:23.859Z,5.37
2019-05-18T09:48:52.309Z,5.63
2019-05-18T09:51:20.776Z,5.33
2019-05-18T09:53:51.466Z,5.77
2019-05-18T09:56:19.419Z,6.50
2019-05-18T09:58:47.880Z,5.93
2019-05-18T10:01:16.503Z,7.07
2019-05-18T10:03:44.936Z,6.07
2019-05-18T10:06:13.419Z,6.10
2019-05-18T10:08:42.104Z,5.93
2019-05-18T10:11:10.549Z,6.30
2019-05-18T10:13:39.000Z,5.50
2019-05-18T10:16:07.511Z,5.67
2019-05-18T10:18:35.973Z,6.23
2019-05-18T10:21:04.563Z,6.13
2019-05-18T10:23:33.044Z,5.53
2019-05-18T10:26:01.487Z,6.83
2019-05-18T10:28:30.003Z,5.40
2019-05-18T10:30:58.432Z,6.73
2019-05-18T10:33:26.884Z,5.77
2019-05-18T10:35:55.397Z,5.60
2019-05-18T10:38:23.871Z,6.17
2019-05-18T10:40:52.379Z,6.37
2019-05-18T10:43:20.864Z,6.00
2019-05-18T10:45:49.352Z,4.80
2019-05-18T10:48:17.904Z,5.30
2019-05-18T10:50:46.319Z,6.10
2019-05-18T10:53:27.733Z,6.53
2019-05-18T10:55:45.480Z,6.20
2019-05-18T10:58:13.962Z,5.40
2019-05-18T11:00:42.622Z,5.43
2019-05-18T11:03:11.079Z,5.50
2019-05-18T11:05:39.503Z,5.80
2019-05-18T11:08:07.959Z,5.73
2019-05-18T11:10:36.412Z,6.20
2019-05-18T11:13:04.943Z,6.33
2019-05-18T11:15:33.367Z,5.47
2019-05-18T11:18:01.828Z,6.33
2019-05-18T11:20:30.254Z,6.20
2019-05-18T11:22:58.751Z,5.70
2019-05-18T11:25:27.255Z,4.93
2019-05-18T11:27:56.603Z,5.40
2019-05-18T11:30:25.192Z,6.23
2019-05-18T11:32:53.618Z,5.40
2019-05-18T11:35:22.507Z,5.03
2019-05-18T11:37:51.024Z,4.90
2019-05-18T11:40:19.707Z,4.77
2019-05-18T11:42:48.212Z,4.60
2019-05-18T11:45:18.095Z,4.90
2019-05-18T11:47:46.536Z,4.97
2019-05-18T11:50:16.849Z,5.50
2019-05-18T11:52:45.441Z,5.07
2019-05-18T11:55:14.315Z,5.57
2019-05-18T11:57:42.847Z,5.17
2019-05-18T12:00:14.162Z,5.70
2019-05-18T12:02:42.664Z,6.00
2019-05-18T12:05:11.477Z,5.63
2019-05-18T12:07:39.896Z,5.73
2019-05-18T12:10:10.175Z,5.80
2019-05-18T12:12:38.740Z,6.33
2019-05-18T12:15:09.548Z,4.73
2019-05-18T12:17:38.055Z,4.57
2019-05-18T12:20:07.599Z,4.70
2019-05-18T12:22:36.165Z,4.10
2019-05-18T12:25:09.259Z,3.80
2019-05-18T12:27:37.854Z,4.70
2019-05-18T12:30:10.209Z,4.20
2019-05-18T12:32:39.004Z,3.60
2019-05-18T12:35:08.875Z,3.70
2019-05-18T12:37:37.517Z,4.07
2019-05-18T12:40:09.217Z,3.93
2019-05-18T12:42:38.036Z,2.90
2019-05-18T12:45:07.939Z,2.77
2019-05-18T12:47:36.552Z,2.70
2019-05-18T12:50:06.714Z,2.60
2019-05-18T12:52:35.173Z,2.70
2019-05-18T12:55:05.479Z,3.10
2019-05-18T12:57:34.202Z,2.73
2019-05-18T13:00:02.764Z,2.67
2019-05-18T13:02:31.235Z,3.33
2019-05-18T13:04:59.716Z,2.90
2019-05-18T13:07:28.187Z,3.07
2019-05-18T13:09:56.615Z,2.90
2019-05-18T13:12:25.174Z,2.90
2019-05-18T13:14:53.599Z,2.90
2019-05-18T13:17:22.083Z,2.90
2019-05-18T13:19:50.579Z,2.30
2019-05-18T13:22:19.105Z,2.40
2019-05-18T13:24:47.598Z,2.37
2019-05-18T13:27:16.127Z,2.30
2019-05-18T13:29:44.657Z,2.30
2019-05-18T13:32:13.123Z,2.70
2019-05-18T13:34:41.548Z,2.80
2019-05-18T13:37:10.085Z,2.33
2019-05-18T13:39:38.598Z,2.50
2019-05-18T13:42:07.076Z,2.80
2019-05-18T13:44:38.098Z,2.90
2019-05-18T13:47:05.848Z,2.97
2019-05-18T13:49:34.363Z,2.77
2019-05-18T13:52:02.911Z,3.10
2019-05-18T13:54:31.342Z,2.80
2019-05-18T13:56:59.799Z,3.30
2019-05-18T13:59:28.464Z,2.90
2019-05-18T14:01:58.427Z,3.37
2019-05-18T14:04:26.961Z,2.97
2019-05-18T14:06:55.792Z,2.90
2019-05-18T14:09:24.434Z,3.00
2019-05-18T14:11:53.002Z,2.77
2019-05-18T14:14:21.472Z,2.77
2019-05-18T14:16:49.904Z,2.70
2019-05-18T14:19:18.546Z,3.67
2019-05-18T14:21:47.033Z,2.57
2019-05-18T14:24:15.516Z,2.30
2019-05-18T14:26:44.041Z,3.43
2019-05-18T14:29:12.486Z,3.13
2019-05-18T14:31:40.978Z,2.80
2019-05-18T14:34:09.509Z,2.83
2019-05-18T14:36:37.926Z,2.83
2019-05-18T14:39:08.645Z,2.47
2019-05-18T14:41:37.078Z,2.77
2019-05-18T14:44:05.620Z,2.10
2019-05-18T14:46:34.073Z,2.43
2019-05-18T14:49:02.593Z,2.40
2019-05-18T14:51:31.060Z,2.57
2019-05-18T14:53:59.591Z,2.10
2019-05-18T14:56:28.042Z,2.30
2019-05-18T14:58:56.501Z,2.03
2019-05-18T15:01:25.008Z,2.30
2019-05-18T15:03:53.547Z,2.63
2019-05-18T15:06:22.068Z,2.40
2019-05-18T15:08:50.539Z,2.60
2019-05-18T15:11:18.979Z,2.63
2019-05-18T15:13:47.556Z,2.70
2019-05-18T15:16:16.156Z,2.97
2019-05-18T15:18:44.650Z,2.53
2019-05-18T15:21:13.263Z,2.60
2019-05-18T15:23:41.782Z,2.57
2019-05-18T15:26:10.371Z,2.70
2019-05-18T15:28:38.794Z,3.00
2019-05-18T15:31:07.366Z,2.90
2019-05-18T15:33:35.870Z,2.40
2019-05-18T15:36:04.487Z,2.70
2019-05-18T15:38:32.997Z,2.70
2019-05-18T15:41:01.433Z,2.47
2019-05-18T15:43:29.911Z,2.40
2019-05-18T15:45:58.354Z,2.30
2019-05-18T15:48:26.840Z,2.10
2019-05-18T15:50:55.323Z,2.40
2019-05-18T15:53:23.768Z,1.97
2019-05-18T15:56:04.737Z,2.10
2019-05-18T15:58:22.526Z,2.20
2019-05-18T16:00:50.973Z,2.30
2019-05-18T16:03:19.562Z,3.77
2019-05-18T16:05:48.148Z,3.50
2019-05-18T16:08:16.595Z,3.23
2019-05-18T16:10:45.189Z,3.10
2019-05-18T16:13:13.719Z,3.10
2019-05-18T16:15:42.371Z,2.70
2019-05-18T16:18:10.847Z,2.70
2019-05-18T16:20:39.445Z,2.47
2019-05-18T16:23:08.029Z,2.40
2019-05-18T16:25:36.459Z,3.00
2019-05-18T16:28:04.982Z,3.13
2019-05-18T16:30:33.446Z,2.80
2019-05-18T16:33:02.071Z,3.30
2019-05-18T16:35:30.677Z,3.47
2019-05-18T16:37:59.197Z,2.43
2019-05-18T16:40:27.629Z,4.70
2019-05-18T16:42:56.095Z,4.30
2019-05-18T16:45:24.578Z,3.90
2019-05-18T16:47:53.071Z,4.30
2019-05-18T16:50:21.724Z,4.07
2019-05-18T16:52:50.456Z,4.30
2019-05-18T16:55:19.289Z,5.40
2019-05-18T16:57:47.860Z,6.20
2019-05-18T17:00:17.040Z,4.50
2019-05-18T17:02:45.548Z,6.27
2019-05-18T17:05:15.944Z,5.10
2019-05-18T17:07:44.476Z,4.17
2019-05-18T17:10:13.814Z,3.10
2019-05-18T17:12:42.367Z,2.87
2019-05-18T17:15:10.997Z,2.63
2019-05-18T17:17:39.447Z,4.30
2019-05-18T17:20:08.660Z,3.73
2019-05-18T17:22:37.297Z,3.07
2019-05-18T17:25:06.597Z,3.10
2019-05-18T17:27:35.111Z,3.00
2019-05-18T17:30:05.617Z,2.93
2019-05-18T17:32:34.055Z,3.37
2019-05-18T17:35:02.771Z,2.77
2019-05-18T17:37:31.220Z,2.70
2019-05-18T17:39:59.686Z,2.40
2019-05-18T17:42:28.128Z,3.30
2019-05-18T17:44:56.589Z,3.97
2019-05-18T17:47:25.019Z,3.30
2019-05-18T17:49:53.513Z,3.50
2019-05-18T17:52:22.009Z,5.03
2019-05-18T17:54:50.706Z,4.57
2019-05-18T17:57:19.191Z,4.80
2019-05-18T17:59:49.528Z,4.20
2019-05-18T18:02:17.855Z,3.80
2019-05-18T18:04:46.371Z,3.70
2019-05-18T18:07:14.803Z,3.60
2019-05-18T18:09:43.288Z,3.33
2019-05-18T18:12:11.730Z,3.80
2019-05-18T18:14:40.206Z,3.53
2019-05-18T18:17:08.741Z,3.40
2019-05-18T18:19:37.204Z,3.63
2019-05-18T18:22:05.828Z,3.40
2019-05-18T18:24:34.406Z,3.40
2019-05-18T18:27:03.026Z,3.70
2019-05-18T18:29:31.491Z,3.60
2019-05-18T18:31:59.968Z,4.10
2019-05-18T18:34:28.549Z,4.13
2019-05-18T18:36:57.002Z,4.33
2019-05-18T18:39:25.508Z,5.07
2019-05-18T18:41:53.966Z,5.33
2019-05-18T18:44:22.392Z,5.07
2019-05-18T18:46:50.889Z,4.73
2019-05-18T18:49:19.376Z,7.67
2019-05-18T18:51:47.864Z,6.57
2019-05-18T18:54:16.292Z,7.60
2019-05-18T18:56:44.757Z,12.83
2019-05-18T18:59:13.271Z,7.73
2019-05-18T19:01:41.725Z,6.80
2019-05-18T19:04:10.171Z,9.47
2019-05-18T19:06:38.756Z,8.50
2019-05-18T19:09:07.992Z,9.40
2019-05-18T19:11:36.575Z,7.83
2019-05-18T19:14:05.749Z,5.40
2019-05-18T19:16:34.425Z,5.77
2019-05-18T19:19:02.900Z,5.43
2019-05-18T19:21:31.368Z,4.70
2019-05-18T19:23:59.875Z,4.70
2019-05-18T19:26:28.400Z,4.20
2019-05-18T19:28:56.876Z,3.90
2019-05-18T19:31:25.441Z,4.97
2019-05-18T19:33:53.895Z,5.10
2019-05-18T19:36:22.348Z,4.40
2019-05-18T19:38:50.804Z,4.17
2019-05-18T19:41:19.242Z,3.30
2019-05-18T19:43:47.718Z,7.83
2019-05-18T19:46:16.148Z,7.10
2019-05-18T19:48:44.596Z,6.30
2019-05-18T19:51:15.950Z,6.63
2019-05-18T19:53:43.264Z,7.10
2019-05-18T19:56:11.739Z,11.90
2019-05-18T19:58:40.233Z,13.03
2019-05-18T20:01:08.672Z,9.10
2019-05-18T20:03:37.167Z,5.90
2019-05-18T20:06:05.670Z,5.60
2019-05-18T20:08:34.160Z,4.77
2019-05-18T20:11:02.642Z,4.50
2019-05-18T20:13:31.123Z,4.00
2019-05-18T20:15:59.578Z,4.00
2019-05-18T20:18:28.036Z,4.77
2019-05-18T20:20:56.475Z,5.17
2019-05-18T20:23:25.079Z,5.63
2019-05-18T20:25:53.529Z,8.47
2019-05-18T20:28:24.072Z,8.00
2019-05-18T20:30:52.154Z,6.47
2019-05-18T20:33:20.744Z,6.73
2019-05-18T20:35:49.213Z,6.40
2019-05-18T20:38:17.762Z,5.90
2019-05-18T20:40:46.182Z,6.10
2019-05-18T20:43:14.904Z,5.37
2019-05-18T20:45:43.351Z,5.87
2019-05-18T20:48:11.825Z,11.93
2019-05-18T20:50:40.364Z,9.37
2019-05-18T20:53:08.998Z,9.83
2019-05-18T20:55:37.452Z,10.57
2019-05-18T20:58:05.989Z,11.40
2019-05-18T21:00:34.743Z,8.20
2019-05-18T21:03:03.196Z,10.10
2019-05-18T21:05:31.655Z,7.73
2019-05-18T21:08:00.102Z,7.33
2019-05-18T21:10:28.679Z,7.63
2019-05-18T21:12:57.304Z,8.17
2019-05-18T21:15:25.848Z,8.10
2019-05-18T21:17:54.367Z,9.20
2019-05-18T21:20:23.082Z,8.90
2019-05-18T21:22:51.564Z,7.50
2019-05-18T21:25:20.024Z,8.43
2019-05-18T21:27:48.507Z,9.53
2019-05-18T21:30:17.334Z,11.93
2019-05-18T21:32:45.790Z,8.73
2019-05-18T21:35:14.382Z,9.40
2019-05-18T21:37:42.844Z,8.37
2019-05-18T21:40:11.620Z,7.67
2019-05-18T21:42:40.194Z,8.17
2019-05-18T21:45:09.051Z,8.93
2019-05-18T21:47:37.503Z,9.23
2019-05-18T21:50:07.409Z,10.07
2019-05-18T21:52:35.959Z,11.23
2019-05-18T21:55:06.252Z,11.50
2019-05-18T21:57:34.731Z,11.63
2019-05-18T22:00:03.540Z,13.67
2019-05-18T22:02:32.267Z,12.83
2019-05-18T22:05:01.270Z,13.47
2019-05-18T22:07:29.872Z,13.03
2019-05-18T22:09:58.319Z,12.07
2019-05-18T22:12:26.797Z,12.47
2019-05-18T22:14:55.241Z,13.70
2019-05-18T22:17:23.704Z,13.70
2019-05-18T22:19:53.674Z,14.20
2019-05-18T22:22:22.137Z,14.73
2019-05-18T22:24:50.563Z,14.67
2019-05-18T22:27:19.204Z,13.60
2019-05-18T22:29:47.691Z,14.03
2019-05-18T22:32:16.169Z,11.97
2019-05-18T22:34:44.604Z,11.97
2019-05-18T22:37:13.062Z,13.93
2019-05-18T22:39:41.494Z,13.47
2019-05-18T22:42:09.988Z,12.83
2019-05-18T22:44:38.477Z,12.50
2019-05-18T22:47:06.930Z,10.97
2019-05-18T22:49:35.420Z,12.83
2019-05-18T22:52:03.937Z,12.63
2019-05-18T22:54:32.555Z,14.07
2019-05-18T22:57:01.031Z,14.47
2019-05-18T22:59:29.517Z,15.37
2019-05-18T23:01:57.941Z,13.60
2019-05-18T23:04:26.477Z,15.70
2019-05-18T23:06:54.904Z,14.13
2019-05-18T23:09:23.387Z,14.87
2019-05-18T23:11:51.816Z,14.20
2019-05-18T23:14:20.274Z,14.00
2019-05-18T23:16:48.782Z,13.57
2019-05-18T23:19:17.359Z,14.53
2019-05-18T23:21:45.838Z,16.80
2019-05-18T23:24:14.333Z,16.20
2019-05-18T23:26:42.831Z,15.07
2019-05-18T23:29:11.299Z,13.27
2019-05-18T23:31:39.745Z,13.93
2019-05-18T23:34:08.196Z,14.30
2019-05-18T23:36:36.658Z,15.53
2019-05-18T23:39:06.682Z,13.50
2019-05-18T23:41:35.340Z,15.33
2019-05-18T23:44:04.115Z,15.07
2019-05-18T23:46:32.683Z,16.00
2019-05-18T23:49:10.423Z,14.80
2019-05-18T23:51:50.639Z,16.03
2019-05-18T23:54:19.191Z,14.20
2019-05-18T23:56:47.645Z,16.53
2019-05-18T23:59:16.084Z,16.53
